Orbital elements of ARIANE 40 R/B
| Launched | 23 March 1998 |
| Flight ended | – |
| Launch site | Europe's Spaceport, Kourou, French Guiana |
| Owner | France |
| NORAD ID | 25261 |
| Date fetched |
Epoch osculation |
Inc. [°] |
Ecc. | RA asc node [hr] |
Arg Peri. [°] |
Mean anom [°] |
Mean motion [rev/day] |
Abs. mag |
| Date fetched |
Epoch osculation |
Inc. [°] |
Ecc. | RA asc node [hr] |
Arg Peri. [°] |
Mean anom [°] |
Mean motion [rev/day] |
Abs. mag |
| 2026 May 01 17:56 | 2026 Apr 30 13:49:35 | 98.8183 | 0.00023 | 10.0272 | 260.9492 | 99.1437 | 14.36314 | 5.243 |
| 2026 Apr 30 17:56 | 2026 Apr 30 13:49:35 | 98.8183 | 0.00023 | 10.0272 | 260.9492 | 99.1437 | 14.36314 | 5.243 |
| 2026 Apr 29 17:57 | 2026 Apr 24 12:22:16 | 98.8194 | 0.00023 | 9.6136 | 287.7811 | 99.1437 | 14.36314 | 5.243 |
| 2026 Apr 28 17:56 | 2026 Apr 24 12:22:16 | 98.8194 | 0.00023 | 9.6136 | 287.7811 | 99.1437 | 14.36314 | 5.243 |
| 2026 Apr 27 17:58 | 2026 Apr 24 12:22:16 | 98.8194 | 0.00023 | 9.6136 | 287.7811 | 99.1437 | 14.36314 | 5.243 |
| 2026 Apr 26 17:58 | 2026 Apr 24 12:22:16 | 98.8194 | 0.00023 | 9.6136 | 287.7811 | 99.1437 | 14.36314 | 5.243 |
| 2026 Apr 25 17:58 | 2026 Apr 24 12:22:16 | 98.8194 | 0.00023 | 9.6136 | 287.7811 | 99.1437 | 14.36314 | 5.243 |
| 2026 Apr 24 17:59 | 2026 Apr 24 12:22:16 | 98.8194 | 0.00023 | 9.6136 | 287.7811 | 99.1437 | 14.36314 | 5.243 |
| 2026 Apr 23 17:57 | 2026 Apr 19 08:39:00 | 98.8202 | 0.00024 | 9.2618 | 310.4283 | 99.1437 | 14.36314 | 5.243 |
| 2026 Apr 22 17:57 | 2026 Apr 19 08:39:00 | 98.8202 | 0.00024 | 9.2618 | 310.4283 | 99.1437 | 14.36314 | 5.243 |
| 2026 Apr 21 17:57 | 2026 Apr 19 08:39:00 | 98.8202 | 0.00024 | 9.2618 | 310.4283 | 99.1437 | 14.36314 | 5.243 |
| 2026 Apr 20 17:57 | 2026 Apr 19 08:39:00 | 98.8202 | 0.00024 | 9.2618 | 310.4283 | 99.1437 | 14.36314 | 5.243 |
| 2026 Apr 19 17:58 | 2026 Apr 19 08:39:00 | 98.8202 | 0.00024 | 9.2618 | 310.4283 | 99.1437 | 14.36314 | 5.243 |
| 2026 Apr 18 17:56 | 2026 Apr 13 02:10:42 | 98.8210 | 0.00027 | 8.8339 | 334.6275 | 99.1437 | 14.36314 | 5.243 |
| 2026 Apr 16 17:57 | 2026 Apr 13 02:10:42 | 98.8210 | 0.00027 | 8.8339 | 334.6275 | 99.1437 | 14.36314 | 5.243 |
| 2026 Apr 14 17:57 | 2026 Apr 13 02:10:42 | 98.8210 | 0.00027 | 8.8339 | 334.6275 | 99.1437 | 14.36314 | 5.243 |
| 2026 Apr 13 17:57 | 2026 Apr 13 02:10:42 | 98.8210 | 0.00027 | 8.8339 | 334.6275 | 99.1437 | 14.36314 | 5.243 |
| 2026 Apr 12 17:57 | 2026 Apr 08 13:30:14 | 98.8217 | 0.00029 | 8.5248 | 349.9720 | 99.1437 | 14.36314 | 5.243 |
| 2026 Apr 11 17:57 | 2026 Apr 08 13:30:14 | 98.8217 | 0.00029 | 8.5248 | 349.9720 | 99.1437 | 14.36314 | 5.243 |
| 2026 Apr 10 17:58 | 2026 Apr 08 13:30:14 | 98.8217 | 0.00029 | 8.5248 | 349.9720 | 99.1437 | 14.36314 | 5.243 |
| 2026 Apr 09 18:01 | 2026 Apr 08 13:30:14 | 98.8217 | 0.00029 | 8.5248 | 349.9720 | 99.1437 | 14.36314 | 5.243 |
| 2026 Apr 08 17:57 | 2026 Apr 08 13:30:14 | 98.8217 | 0.00029 | 8.5248 | 349.9720 | 99.1437 | 14.36314 | 5.243 |
| 2026 Apr 07 17:57 | 2026 Apr 02 02:00:57 | 98.8226 | 0.00033 | 8.0826 | 9.5499 | 99.1437 | 14.36314 | 5.243 |
| 2026 Apr 06 17:57 | 2026 Apr 02 02:00:57 | 98.8226 | 0.00033 | 8.0826 | 9.5499 | 99.1437 | 14.36314 | 5.243 |
| 2026 Apr 05 17:56 | 2026 Apr 02 02:00:57 | 98.8226 | 0.00033 | 8.0826 | 9.5499 | 99.1437 | 14.36314 | 5.243 |
| 2026 Apr 04 17:57 | 2026 Apr 02 02:00:57 | 98.8226 | 0.00033 | 8.0826 | 9.5499 | 99.1437 | 14.36314 | 5.243 |